createdAt,value
2023-02-11T00:01:50.934Z,101797.81
2023-02-11T00:04:17.738Z,101795.28
2023-02-11T00:06:44.378Z,101791.69
2023-02-11T00:09:11.679Z,101789.13
2023-02-11T00:11:38.350Z,101785.19
2023-02-11T00:14:08.217Z,101790.66
2023-02-11T00:16:35.310Z,101789.81
2023-02-11T00:19:03.485Z,101789.81
2023-02-11T00:21:30.358Z,101776.31
2023-02-11T00:23:59.756Z,101770.00
2023-02-11T00:26:30.126Z,101774.81
2023-02-11T00:28:57.257Z,101762.00
2023-02-11T00:31:24.638Z,101763.91
2023-02-11T00:33:51.964Z,101755.22
2023-02-11T00:36:21.637Z,101759.47
2023-02-11T00:38:50.107Z,101765.38
2023-02-11T00:41:17.815Z,101762.84
2023-02-11T00:43:45.420Z,101758.91
2023-02-11T00:46:12.261Z,101754.09
2023-02-11T00:48:39.669Z,101755.31
2023-02-11T00:51:07.322Z,101749.19
2023-02-11T00:53:34.171Z,101743.94
2023-02-11T00:56:01.263Z,101749.38
2023-02-11T00:58:28.862Z,101745.97
2023-02-11T01:00:56.118Z,101755.69
2023-02-11T01:03:23.007Z,101752.78
2023-02-11T01:05:49.992Z,101756.91
2023-02-11T01:08:16.796Z,101763.22
2023-02-11T01:10:44.030Z,101757.09
2023-02-11T01:13:11.402Z,101761.53
2023-02-11T01:15:38.224Z,101752.69
2023-02-11T01:18:05.980Z,101758.31
2023-02-11T01:20:32.991Z,101760.41
2023-02-11T01:22:59.779Z,101760.41
2023-02-11T01:25:26.601Z,101758.72
2023-02-11T01:27:53.202Z,101767.91
2023-02-11T01:30:19.882Z,101752.91
2023-02-11T01:32:46.525Z,101750.19
2023-02-11T01:35:13.201Z,101748.34
2023-02-11T01:37:39.888Z,101761.81
2023-02-11T01:40:12.161Z,101760.75
2023-02-11T01:42:39.154Z,101762.44
2023-02-11T01:45:50.073Z,101767.91
2023-02-11T01:48:25.700Z,101762.66
2023-02-11T01:50:57.312Z,101768.94
2023-02-11T01:53:43.490Z,101764.53
2023-02-11T01:56:29.950Z,101754.66
2023-02-11T01:59:03.069Z,101765.75
2023-02-11T02:01:33.708Z,101761.69
2023-02-11T02:04:03.260Z,101759.97
2023-02-11T02:06:43.894Z,101751.78
2023-02-11T02:09:20.468Z,101754.34
2023-02-11T02:11:47.080Z,101757.75
2023-02-11T02:14:13.677Z,101753.97
2023-02-11T02:16:40.418Z,101754.16
2023-02-11T02:19:31.597Z,101756.06
2023-02-11T02:22:10.455Z,101757.09
2023-02-11T02:24:49.272Z,101741.53
2023-02-11T02:27:38.230Z,101746.81
2023-02-11T02:30:16.949Z,101735.25
2023-02-11T02:33:21.678Z,101731.06
2023-02-11T02:36:08.136Z,101738.91
2023-02-11T02:38:55.632Z,101736.53
2023-02-11T02:41:32.533Z,101739.59
2023-02-11T02:43:59.192Z,101733.25
2023-02-11T02:46:29.280Z,101731.19
2023-02-11T02:48:57.140Z,101727.41
2023-02-11T02:52:05.868Z,101719.22
2023-02-11T02:54:51.185Z,101722.63
2023-02-11T02:57:36.250Z,101728.53
2023-02-11T03:00:19.396Z,101730.63
2023-02-11T03:03:18.325Z,101735.91
2023-02-11T03:06:03.144Z,101718.66
2023-02-11T03:08:32.444Z,101724.31
2023-02-11T03:11:01.373Z,101720.91
2023-02-11T03:13:33.763Z,101724.69
2023-02-11T03:16:11.474Z,101727.22
2023-02-11T03:18:41.892Z,101723.19
2023-02-11T03:21:10.560Z,101713.94
2023-02-11T03:23:44.588Z,101712.25
2023-02-11T03:26:14.032Z,101713.94
2023-02-11T03:28:59.278Z,101716.00
2023-02-11T03:31:46.018Z,101720.34
2023-02-11T03:34:21.440Z,101721.38
2023-02-11T03:37:05.107Z,101725.53
2023-02-11T03:39:45.446Z,101732.50
2023-02-11T03:42:15.275Z,101734.00
2023-02-11T03:44:51.836Z,101720.16
2023-02-11T03:47:23.378Z,101721.88
2023-02-11T03:49:53.301Z,101711.78
2023-02-11T03:52:22.217Z,101705.28
2023-02-11T03:54:56.375Z,101724.41
2023-02-11T03:57:23.048Z,101718.44
2023-02-11T03:59:57.804Z,101714.03
2023-02-11T04:02:29.431Z,101716.69
2023-02-11T04:04:56.467Z,101719.28
2023-02-11T04:07:23.354Z,101726.28
2023-02-11T04:09:50.771Z,101726.06
2023-02-11T04:12:17.797Z,101734.47
2023-02-11T04:14:44.508Z,101732.59
2023-02-11T04:17:11.554Z,101730.00
2023-02-11T04:19:38.354Z,101733.97
2023-02-11T04:22:05.326Z,101737.56
2023-02-11T04:24:32.335Z,101726.44
2023-02-11T04:26:58.960Z,101732.75
2023-02-11T04:29:25.561Z,101722.69
2023-02-11T04:31:52.339Z,101725.22
2023-02-11T04:34:18.948Z,101726.72
2023-02-11T04:36:45.633Z,101731.81
2023-02-11T04:39:12.260Z,101738.97
2023-02-11T04:41:38.972Z,101742.19
2023-02-11T04:44:05.972Z,101740.31
2023-02-11T04:46:32.861Z,101739.25
2023-02-11T04:48:59.504Z,101739.94
2023-02-11T04:51:26.201Z,101745.41
2023-02-11T04:53:52.885Z,101763.50
2023-02-11T04:56:19.545Z,101759.25
2023-02-11T04:58:46.225Z,101764.53
2023-02-11T05:01:15.047Z,101775.47
2023-02-11T05:03:42.342Z,101771.03
2023-02-11T05:06:10.038Z,101772.25
2023-02-11T05:08:36.767Z,101773.56
2023-02-11T05:11:03.656Z,101766.41
2023-02-11T05:13:30.649Z,101771.03
2023-02-11T05:15:57.371Z,101772.72
2023-02-11T05:18:24.150Z,101781.28
2023-02-11T05:20:51.017Z,101773.09
2023-02-11T05:23:17.744Z,101766.97
2023-02-11T05:25:44.341Z,101765.94
2023-02-11T05:28:10.970Z,101772.78
2023-02-11T05:30:37.692Z,101772.72
2023-02-11T05:33:04.338Z,101776.84
2023-02-11T05:35:31.029Z,101784.19
2023-02-11T05:37:57.732Z,101793.78
2023-02-11T05:40:24.367Z,101792.53
2023-02-11T05:42:50.986Z,101792.09
2023-02-11T05:45:17.578Z,101786.63
2023-02-11T05:47:44.249Z,101781.88
2023-02-11T05:50:10.903Z,101787.34
2023-02-11T05:52:37.468Z,101794.47
2023-02-11T05:55:04.716Z,101790.06
2023-02-11T05:57:31.350Z,101785.63
2023-02-11T05:59:57.963Z,101783.09
2023-02-11T06:02:24.670Z,101781.22
2023-02-11T06:04:51.330Z,101785.00
2023-02-11T06:07:19.748Z,101781.56
2023-02-11T06:09:46.436Z,101786.38
2023-02-11T06:12:13.106Z,101796.63
2023-02-11T06:14:39.804Z,101796.63
2023-02-11T06:17:06.785Z,101800.19
2023-02-11T06:19:34.134Z,101793.53
2023-02-11T06:22:00.832Z,101796.47
2023-02-11T06:24:51.008Z,101783.31
2023-02-11T06:27:14.366Z,101792.16
2023-02-11T06:29:40.989Z,101790.13
2023-02-11T06:32:11.651Z,101800.94
2023-02-11T06:34:42.663Z,101797.59
2023-02-11T06:37:09.306Z,101803.59
2023-02-11T06:39:35.906Z,101812.31
2023-02-11T06:42:02.545Z,101823.56
2023-02-11T06:44:29.309Z,101824.94
2023-02-11T06:46:55.978Z,101830.94
2023-02-11T06:49:22.624Z,101828.72
2023-02-11T06:51:49.218Z,101826.28
2023-02-11T06:54:15.930Z,101819.16
2023-02-11T06:56:42.603Z,101814.16
2023-02-11T06:59:12.372Z,101814.00
2023-02-11T07:01:39.030Z,101819.88
2023-02-11T07:04:05.794Z,101812.03
2023-02-11T07:06:32.392Z,101819.13
2023-02-11T07:08:58.987Z,101821.47
2023-02-11T07:11:28.322Z,101817.56
2023-02-11T07:13:59.619Z,101817.00
2023-02-11T07:16:26.436Z,101828.03
2023-02-11T07:18:53.365Z,101833.25
2023-02-11T07:21:22.338Z,101827.25
2023-02-11T07:23:49.169Z,101826.06
2023-02-11T07:26:18.572Z,101827.38
2023-02-11T07:28:45.762Z,101831.25
2023-02-11T07:31:18.431Z,101840.97
2023-02-11T07:33:45.934Z,101844.72
2023-02-11T07:36:14.288Z,101858.56
2023-02-11T07:38:41.056Z,101859.81
2023-02-11T07:41:10.964Z,101862.69
2023-02-11T07:43:38.973Z,101859.97
2023-02-11T07:46:07.740Z,101859.31
2023-02-11T07:48:34.529Z,101855.03
2023-02-11T07:51:13.192Z,101852.31
2023-02-11T07:53:39.887Z,101850.44
2023-02-11T07:56:07.808Z,101852.16
2023-02-11T07:58:35.099Z,101864.78
2023-02-11T08:01:07.360Z,101871.28
2023-02-11T08:03:35.133Z,101874.00
2023-02-11T08:06:21.911Z,101884.72
2023-02-11T08:08:51.171Z,101879.09
2023-02-11T08:11:25.866Z,101873.47
2023-02-11T08:13:53.861Z,101877.50
2023-02-11T08:16:24.783Z,101872.22
2023-02-11T08:18:52.996Z,101864.88
2023-02-11T08:21:20.989Z,101868.94
2023-02-11T08:23:49.430Z,101869.78
2023-02-11T08:26:19.161Z,101878.47
2023-02-11T08:28:47.095Z,101876.88
2023-02-11T08:31:22.584Z,101880.31
2023-02-11T08:33:49.795Z,101883.69
2023-02-11T08:36:23.226Z,101886.06
2023-02-11T08:38:50.037Z,101882.09
2023-02-11T08:41:18.206Z,101872.34
2023-02-11T08:43:45.707Z,101861.03
2023-02-11T08:46:15.087Z,101876.88
2023-02-11T08:48:42.181Z,101883.88
2023-02-11T08:51:11.631Z,101878.69
2023-02-11T08:53:38.939Z,101878.97
2023-02-11T08:56:06.520Z,101880.31
2023-02-11T08:58:33.296Z,101887.31
2023-02-11T09:01:00.117Z,101884.00
2023-02-11T09:03:27.075Z,101883.25
2023-02-11T09:05:53.872Z,101885.44
2023-02-11T09:08:21.173Z,101891.19
2023-02-11T09:10:47.935Z,101887.03
2023-02-11T09:13:14.629Z,101891.09
2023-02-11T09:15:45.416Z,101890.53
2023-02-11T09:18:12.639Z,101887.25
2023-02-11T09:20:39.541Z,101890.47
2023-02-11T09:23:06.204Z,101895.09
2023-02-11T09:25:32.843Z,101899.91
2023-02-11T09:27:59.531Z,101897.44
2023-02-11T09:30:26.433Z,101894.16
2023-02-11T09:32:53.669Z,101896.72
2023-02-11T09:35:20.440Z,101899.44
2023-02-11T09:37:47.082Z,101902.00
2023-02-11T09:40:16.332Z,101901.81
2023-02-11T09:43:09.005Z,101900.00
2023-02-11T09:45:36.293Z,101890.19
2023-02-11T09:48:10.577Z,101884.81
2023-02-11T09:50:44.198Z,101878.56
2023-02-11T09:53:29.879Z,101894.59
2023-02-11T09:56:02.228Z,101895.94
2023-02-11T09:58:33.688Z,101905.63
2023-02-11T10:01:27.021Z,101910.34
2023-02-11T10:03:59.524Z,101905.31
2023-02-11T10:06:36.754Z,101908.94
2023-02-11T10:09:37.981Z,101919.75
2023-02-11T10:12:42.140Z,101908.41
2023-02-11T10:15:18.229Z,101906.41
2023-02-11T10:17:50.741Z,101903.94
2023-02-11T10:20:36.042Z,101902.72
2023-02-11T10:23:21.164Z,101907.31
2023-02-11T10:25:54.767Z,101904.00
2023-02-11T10:28:27.430Z,101900.16
2023-02-11T10:31:05.982Z,101917.16
2023-02-11T10:33:47.331Z,101919.16
2023-02-11T10:36:17.792Z,101917.25
2023-02-11T10:38:45.200Z,101909.09
2023-02-11T10:41:20.354Z,101914.66
2023-02-11T10:43:47.029Z,101910.06
2023-02-11T10:46:22.385Z,101909.31
2023-02-11T10:48:53.359Z,101912.94
2023-02-11T10:51:26.874Z,101905.78
2023-02-11T10:54:06.214Z,101912.34
2023-02-11T10:56:38.289Z,101910.66
2023-02-11T10:59:13.970Z,101914.59
2023-02-11T11:01:51.071Z,101910.34
2023-02-11T11:04:29.980Z,101917.59
2023-02-11T11:06:59.126Z,101905.56
2023-02-11T11:09:30.873Z,101913.78
2023-02-11T11:11:57.889Z,101905.47
2023-02-11T11:14:29.048Z,101904.69
2023-02-11T11:16:56.225Z,101900.47
2023-02-11T11:19:24.781Z,101889.44
2023-02-11T11:21:57.163Z,101885.22
2023-02-11T11:24:44.488Z,101901.03
2023-02-11T11:27:18.065Z,101897.44
2023-02-11T11:29:54.740Z,101897.06
2023-02-11T11:32:27.925Z,101901.06
2023-02-11T11:35:03.613Z,101903.03
2023-02-11T11:37:33.082Z,101897.78
2023-02-11T11:40:17.545Z,101899.13
2023-02-11T11:42:44.339Z,101893.72
2023-02-11T11:45:19.803Z,101894.56
2023-02-11T11:47:59.473Z,101890.09
2023-02-11T11:50:36.945Z,101893.00
2023-02-11T11:53:23.345Z,101894.09
2023-02-11T11:56:15.495Z,101894.97
2023-02-11T11:58:42.510Z,101893.75
2023-02-11T12:01:31.294Z,101884.06
2023-02-11T12:04:03.766Z,101888.25
2023-02-11T12:06:39.662Z,101888.28
2023-02-11T12:09:18.494Z,101891.53
2023-02-11T12:11:56.752Z,101891.81
2023-02-11T12:14:35.261Z,101891.72
2023-02-11T12:17:07.131Z,101895.53
2023-02-11T12:20:05.451Z,101894.56
2023-02-11T12:22:50.604Z,101904.09
2023-02-11T12:25:35.786Z,101885.03
2023-02-11T12:28:23.658Z,101889.69
2023-02-11T12:30:58.823Z,101902.56
2023-02-11T12:33:34.577Z,101893.25
2023-02-11T12:36:07.116Z,101887.56
2023-02-11T12:39:04.186Z,101878.94
2023-02-11T12:42:10.055Z,101874.50
2023-02-11T12:44:59.373Z,101864.19
2023-02-11T12:47:40.181Z,101868.59
2023-02-11T12:50:09.651Z,101871.41
2023-02-11T12:52:55.041Z,101890.69
2023-02-11T12:55:28.227Z,101889.50
2023-02-11T12:57:58.433Z,101887.88
2023-02-11T13:01:09.478Z,101885.75
2023-02-11T13:03:49.275Z,101881.59
2023-02-11T13:06:21.243Z,101879.72
2023-02-11T13:08:51.378Z,101879.94
2023-02-11T13:11:20.384Z,101885.66
2023-02-11T13:13:57.696Z,101888.38
2023-02-11T13:16:44.917Z,101886.09
2023-02-11T13:19:25.179Z,101883.97
2023-02-11T13:22:10.816Z,101893.03
2023-02-11T13:24:51.371Z,101897.53
2023-02-11T13:27:30.492Z,101885.28
2023-02-11T13:30:19.921Z,101879.44
2023-02-11T13:32:55.956Z,101887.94
2023-02-11T13:35:37.275Z,101878.38
2023-02-11T13:38:18.941Z,101873.72
2023-02-11T13:40:46.218Z,101866.78
2023-02-11T13:43:34.472Z,101867.22
2023-02-11T13:46:05.801Z,101873.81
2023-02-11T13:48:36.896Z,101875.25
2023-02-11T13:51:09.300Z,101883.75
2023-02-11T13:53:56.329Z,101875.50
2023-02-11T13:56:32.412Z,101867.28
2023-02-11T13:59:04.136Z,101870.41
2023-02-11T14:02:05.051Z,101867.41
2023-02-11T14:04:50.507Z,101862.50
2023-02-11T14:07:57.223Z,101868.06
2023-02-11T14:10:39.152Z,101861.72
2023-02-11T14:13:19.922Z,101858.94
2023-02-11T14:15:46.941Z,101857.47
2023-02-11T14:18:45.492Z,101846.47
2023-02-11T14:21:17.519Z,101844.34
2023-02-11T14:23:45.327Z,101855.50
2023-02-11T14:26:21.144Z,101854.00
2023-02-11T14:29:16.653Z,101858.59
2023-02-11T14:31:58.155Z,101859.50
2023-02-11T14:34:43.129Z,101857.38
2023-02-11T14:37:37.545Z,101851.50
2023-02-11T14:40:25.894Z,101855.56
2023-02-11T14:42:54.436Z,101855.59
2023-02-11T14:45:25.701Z,101852.16
2023-02-11T14:48:18.951Z,101855.91
2023-02-11T14:50:51.588Z,101856.53
2023-02-11T14:53:30.620Z,101862.63
2023-02-11T14:55:58.126Z,101855.47
2023-02-11T14:58:32.771Z,101864.97
2023-02-11T15:01:00.910Z,101856.50
2023-02-11T15:03:37.958Z,101862.84
2023-02-11T15:06:04.653Z,101862.38
2023-02-11T15:08:33.152Z,101858.84
2023-02-11T15:11:03.070Z,101851.88
2023-02-11T15:13:32.632Z,101859.66
2023-02-11T15:16:08.067Z,101859.88
2023-02-11T15:18:39.128Z,101865.59
2023-02-11T15:21:06.492Z,101866.44
2023-02-11T15:23:33.454Z,101875.03
2023-02-11T15:26:05.484Z,101874.19
2023-02-11T15:28:34.705Z,101877.09
2023-02-11T15:31:13.719Z,101871.34
2023-02-11T15:33:40.803Z,101870.38
2023-02-11T15:36:10.633Z,101865.72
2023-02-11T15:38:37.527Z,101866.72
2023-02-11T15:41:07.549Z,101872.88
2023-02-11T15:43:48.629Z,101879.63
2023-02-11T15:46:19.179Z,101882.97
2023-02-11T15:48:50.720Z,101881.72
2023-02-11T15:51:25.271Z,101880.22
2023-02-11T15:54:22.689Z,101878.34
2023-02-11T15:56:51.828Z,101874.47
2023-02-11T15:59:25.772Z,101892.19
2023-02-11T16:01:54.727Z,101889.19
2023-02-11T16:04:27.221Z,101896.75
2023-02-11T16:06:55.491Z,101888.75
2023-02-11T16:09:30.356Z,101887.91
2023-02-11T16:11:59.928Z,101891.72
2023-02-11T16:14:29.611Z,101893.75
2023-02-11T16:17:10.665Z,101897.47
2023-02-11T16:19:44.426Z,101898.72
2023-02-11T16:22:16.621Z,101900.81
2023-02-11T16:24:48.579Z,101898.84
2023-02-11T16:27:28.547Z,101891.75
2023-02-11T16:29:55.603Z,101906.69
2023-02-11T16:32:26.208Z,101905.38
2023-02-11T16:34:55.155Z,101904.53
2023-02-11T16:37:21.940Z,101903.28
2023-02-11T16:39:48.590Z,101904.97
2023-02-11T16:42:15.412Z,101905.38
2023-02-11T16:44:42.269Z,101903.22
2023-02-11T16:47:28.014Z,101900.03
2023-02-11T16:49:56.239Z,101901.97
2023-02-11T16:52:24.871Z,101913.16
2023-02-11T16:54:51.809Z,101912.50
2023-02-11T16:57:24.421Z,101908.72
2023-02-11T16:59:51.949Z,101913.25
2023-02-11T17:02:23.896Z,101911.63
2023-02-11T17:04:52.859Z,101917.09
2023-02-11T17:07:19.692Z,101913.25
2023-02-11T17:09:46.293Z,101915.94
2023-02-11T17:12:12.961Z,101913.06
2023-02-11T17:14:39.629Z,101915.41
2023-02-11T17:17:06.346Z,101918.31
2023-02-11T17:19:32.956Z,101911.81
2023-02-11T17:21:59.586Z,101924.66
2023-02-11T17:24:30.064Z,101928.63
2023-02-11T17:26:57.537Z,101932.81
2023-02-11T17:29:25.542Z,101934.59
2023-02-11T17:31:53.342Z,101931.38
2023-02-11T17:34:21.492Z,101935.56
2023-02-11T17:36:48.091Z,101931.13
2023-02-11T17:39:15.427Z,101923.38
2023-02-11T17:41:42.316Z,101933.84
2023-02-11T17:44:12.227Z,101937.63
2023-02-11T17:46:38.844Z,101945.84
2023-02-11T17:49:05.569Z,101953.22
2023-02-11T17:51:38.330Z,101949.63
2023-02-11T17:54:11.211Z,101957.47
2023-02-11T17:56:38.831Z,101960.78
2023-02-11T17:59:07.059Z,101958.91
2023-02-11T18:01:34.542Z,101950.28
2023-02-11T18:04:01.703Z,101952.00
2023-02-11T18:06:33.929Z,101949.25
2023-02-11T18:09:02.478Z,101960.00
2023-02-11T18:11:30.926Z,101957.47
2023-02-11T18:14:02.027Z,101965.03
2023-02-11T18:16:30.030Z,101966.06
2023-02-11T18:18:58.367Z,101975.13
2023-02-11T18:21:26.708Z,101973.03
2023-02-11T18:23:53.819Z,101978.06
2023-02-11T18:26:21.871Z,101970.22
2023-02-11T18:28:49.000Z,101977.09
2023-02-11T18:31:16.063Z,101979.19
2023-02-11T18:33:43.275Z,101975.78
2023-02-11T18:36:13.188Z,101974.66
2023-02-11T18:38:40.477Z,101982.59
2023-02-11T18:41:08.294Z,101982.13
2023-02-11T18:43:35.662Z,101982.69
2023-02-11T18:46:06.654Z,101983.16
2023-02-11T18:48:34.066Z,101982.13
2023-02-11T18:51:00.666Z,101981.91
2023-02-11T18:53:27.586Z,101974.09
2023-02-11T18:55:55.442Z,101990.69
2023-02-11T18:58:22.518Z,101993.97
2023-02-11T19:00:50.145Z,101991.66
2023-02-11T19:03:17.159Z,101997.69
2023-02-11T19:05:49.242Z,101986.63
2023-02-11T19:08:17.177Z,101984.91
2023-02-11T19:10:46.621Z,101988.22
2023-02-11T19:13:14.365Z,101992.66
2023-02-11T19:15:43.207Z,101991.16
2023-02-11T19:18:10.610Z,101981.91
2023-02-11T19:20:41.814Z,101994.34
2023-02-11T19:23:09.217Z,101993.69
2023-02-11T19:25:36.551Z,101985.28
2023-02-11T19:28:03.560Z,101986.13
2023-02-11T19:30:30.645Z,101982.53
2023-02-11T19:32:57.901Z,101994.53
2023-02-11T19:35:25.579Z,101990.75
2023-02-11T19:37:52.326Z,101999.16
2023-02-11T19:40:21.333Z,102000.13
2023-02-11T19:42:49.040Z,102003.50
2023-02-11T19:45:15.833Z,102008.34
2023-02-11T19:47:42.453Z,102005.59
2023-02-11T19:50:09.552Z,102011.72
2023-02-11T19:52:40.694Z,102016.53
2023-02-11T19:55:08.447Z,102016.53
2023-02-11T19:57:36.529Z,102013.97
2023-02-11T20:00:05.262Z,102013.50
2023-02-11T20:02:31.970Z,102007.16
2023-02-11T20:04:58.664Z,102004.31
2023-02-11T20:07:25.288Z,101998.16
2023-02-11T20:09:53.698Z,102000.34
2023-02-11T20:12:20.644Z,101999.50
2023-02-11T20:14:47.706Z,102000.53
2023-02-11T20:17:14.358Z,102003.63
2023-02-11T20:19:41.403Z,101997.50
2023-02-11T20:22:08.481Z,102007.78
2023-02-11T20:24:35.263Z,102020.13
2023-02-11T20:27:02.613Z,102017.28
2023-02-11T20:29:31.221Z,102010.41
2023-02-11T20:31:58.123Z,102009.19
2023-02-11T20:34:25.368Z,102018.91
2023-02-11T20:36:52.744Z,102016.72
2023-02-11T20:39:22.389Z,102011.94
2023-02-11T20:41:50.676Z,102010.59
2023-02-11T20:44:17.926Z,102017.09
2023-02-11T20:46:48.685Z,102019.34
2023-02-11T20:49:18.980Z,102011.31
2023-02-11T20:51:46.425Z,102012.66
2023-02-11T20:54:17.819Z,102013.34
2023-02-11T20:56:47.798Z,102011.44
2023-02-11T20:59:16.696Z,102022.25
2023-02-11T21:01:47.465Z,102021.41
2023-02-11T21:04:17.707Z,102017.53
2023-02-11T21:06:50.269Z,102023.19
2023-02-11T21:09:22.491Z,102028.81
2023-02-11T21:11:51.735Z,102030.41
2023-02-11T21:14:19.484Z,102027.91
2023-02-11T21:16:47.456Z,102028.56
2023-02-11T21:19:14.659Z,102030.28
2023-02-11T21:21:41.968Z,102028.75
2023-02-11T21:24:09.748Z,102027.41
2023-02-11T21:26:36.795Z,102030.34
2023-02-11T21:29:05.605Z,102034.59
2023-02-11T21:31:34.461Z,102036.47
2023-02-11T21:34:01.282Z,102033.94
2023-02-11T21:36:29.571Z,102037.50
2023-02-11T21:38:56.982Z,102038.56
2023-02-11T21:41:24.918Z,102037.69
2023-02-11T21:43:52.470Z,102040.06
2023-02-11T21:46:20.670Z,102037.69
2023-02-11T21:48:47.797Z,102034.28
2023-02-11T21:51:24.271Z,102033.44
2023-02-11T21:54:01.315Z,102031.38
2023-02-11T21:56:29.721Z,102034.13
2023-02-11T21:58:58.303Z,102039.75
2023-02-11T22:01:33.303Z,102040.97
2023-02-11T22:04:00.162Z,102035.88
2023-02-11T22:06:31.054Z,102042.19
2023-02-11T22:08:58.979Z,102037.75
2023-02-11T22:11:25.662Z,102036.22
2023-02-11T22:13:56.361Z,102032.81
2023-02-11T22:16:23.945Z,102043.09
2023-02-11T22:18:51.533Z,102043.25
2023-02-11T22:21:20.814Z,102039.88
2023-02-11T22:23:47.974Z,102035.25
2023-02-11T22:26:18.161Z,102042.06
2023-02-11T22:28:45.633Z,102044.09
2023-02-11T22:31:21.799Z,102036.44
2023-02-11T22:33:48.949Z,102026.38
2023-02-11T22:36:18.930Z,102029.81
2023-02-11T22:38:45.600Z,102040.94
2023-02-11T22:41:12.629Z,102036.69
2023-02-11T22:43:42.580Z,102032.25
2023-02-11T22:46:11.023Z,102031.56
2023-02-11T22:48:37.661Z,102028.81
2023-02-11T22:51:12.148Z,102036.03
2023-02-11T22:53:38.843Z,102039.41
2023-02-11T22:56:14.807Z,102044.22
2023-02-11T22:58:41.925Z,102046.25
2023-02-11T23:01:08.595Z,102046.63
2023-02-11T23:03:35.936Z,102041.53
2023-02-11T23:06:03.203Z,102044.25
2023-02-11T23:08:30.954Z,102044.06
2023-02-11T23:11:04.896Z,102044.44
2023-02-11T23:13:35.282Z,102052.44
2023-02-11T23:16:08.029Z,102052.44
2023-02-11T23:18:36.646Z,102045.44
2023-02-11T23:21:06.862Z,102038.47
2023-02-11T23:23:34.182Z,102048.19
2023-02-11T23:26:01.482Z,102042.06
2023-02-11T23:28:28.656Z,102045.31
2023-02-11T23:30:56.176Z,102044.28
2023-02-11T23:33:23.051Z,102048.72
2023-02-11T23:35:49.755Z,102049.44
2023-02-11T23:38:16.414Z,102054.72
2023-02-11T23:40:43.047Z,102058.97
2023-02-11T23:43:09.652Z,102049.09
2023-02-11T23:45:36.359Z,102058.97
2023-02-11T23:48:03.048Z,102062.91
2023-02-11T23:50:30.298Z,102058.63
2023-02-11T23:52:57.246Z,102049.94
2023-02-11T23:55:23.926Z,102056.91
2023-02-11T23:57:50.541Z,102055.22
